Time;durP1;ratioP1;P1;durP2;ratioP2;P2;SDS_P1;SDS_P2;PMS_P1;PMS_P2;Temp;Humidity;BMP_temperature;BMP_pressure;BME280_temperature;BME280_humidity;BME280_pressure;Samples;Min_cycle;Max_cycle;Signal;HPM_P1;HPM_P2
2023/03/26 00:01:14;;;;;;;;;;;;;;;12.94;52.01;99743.06;4983476;28;6808;-76
2023/03/26 00:03:41;;;;;;;;;;;;;;;12.94;52.69;99747.31;4985448;28;7881;-76
2023/03/26 00:06:15;;;;;;;;;;;;;;;12.93;52.02;99736.19;4984371;28;6780;-76
2023/03/26 00:08:44;;;;;;;;;;;;;;;12.92;52.28;99740.44;4980099;28;7797;-76
2023/03/26 00:11:13;;;;;;;;;;;;;;;12.92;52.32;99750.72;4981219;28;6792;-76
2023/03/26 00:13:40;;;;;;;;;;;;;;;12.94;52.21;99737.03;4985550;28;6996;-76
2023/03/26 00:16:06;;;;;;;;;;;;;;;12.91;52.29;99738.69;4984621;28;6800;-76
2023/03/26 00:18:33;;;;;;;;;;;;;;;12.88;52.82;99743.75;4973924;28;7853;-76
2023/03/26 00:21:06;;;;;;;;;;;;;;;12.85;52.34;99746.25;4984710;28;6792;-76
2023/03/26 00:23:34;;;;;;;;;;;;;;;12.80;53.02;99737.53;4965984;28;7051;-76
2023/03/26 00:26:02;;;;;;;;;;;;;;;12.78;52.38;99737.47;4984521;28;6788;-74
2023/03/26 00:28:28;;;;;;;;;;;;;;;12.76;52.68;99734.00;4964583;28;10020;-73
2023/03/26 00:31:01;;;;;;;;;;;;;;;12.75;52.42;99733.97;4982176;28;7135;-74
2023/03/26 00:33:27;;;;;;;;;;;;;;;12.73;53.03;99730.47;4984103;28;6872;-75
2023/03/26 00:35:57;;;;;;;;;;;;;;;12.69;52.84;99731.22;4982286;28;7431;-75
2023/03/26 00:38:24;;;;;;;;;;;;;;;12.66;53.14;99723.41;4983077;28;6800;-75
2023/03/26 00:40:51;;;;;;;;;;;;;;;12.62;52.71;99723.31;4970386;28;6991;-77
2023/03/26 00:43:19;;;;;;;;;;;;;;;12.59;52.24;99727.50;4980041;28;6851;-74
2023/03/26 00:45:50;;;;;;;;;;;;;;;12.53;52.65;99725.63;4958408;28;8864;-76
2023/03/26 00:48:17;;;;;;;;;;;;;;;12.49;52.77;99721.22;4981048;28;6823;-75
2023/03/26 00:50:46;;;;;;;;;;;;;;;12.47;52.98;99716.03;4983052;28;6808;-74
2023/03/26 00:53:14;;;;;;;;;;;;;;;12.46;52.93;99718.56;4981685;28;6784;-74
2023/03/26 00:55:45;;;;;;;;;;;;;;;12.45;53.02;99714.22;4981554;28;6974;-74
2023/03/26 00:58:12;;;;;;;;;;;;;;;12.45;52.49;99704.84;4980403;28;7131;-77
2023/03/26 01:00:50;;;;;;;;;;;;;;;12.48;53.17;99706.63;4974705;28;6809;-74
2023/03/26 01:03:17;;;;;;;;;;;;;;;12.50;53.00;99700.69;4973991;28;12952;-75
2023/03/26 01:05:51;;;;;;;;;;;;;;;12.54;52.67;99705.94;4981596;28;7122;-76
2023/03/26 01:08:29;;;;;;;;;;;;;;;12.50;52.83;99697.25;4979615;28;7142;-73
2023/03/26 01:11:04;;;;;;;;;;;;;;;12.50;52.70;99695.53;4979233;28;8792;-73
2023/03/26 01:13:37;;;;;;;;;;;;;;;12.49;53.11;99690.38;4983991;28;6796;-74
2023/03/26 01:16:18;;;;;;;;;;;;;;;12.49;52.61;99682.66;4980587;28;6920;-73
2023/03/26 01:18:47;;;;;;;;;;;;;;;12.50;52.18;99672.41;4978004;28;6820;-73
2023/03/26 01:21:21;;;;;;;;;;;;;;;12.54;52.48;99677.66;4980764;28;6955;-73
2023/03/26 01:23:59;;;;;;;;;;;;;;;12.59;52.89;99669.25;4965377;28;6982;-74
2023/03/26 01:27:13;;;;;;;;;;;;;;;12.63;52.25;99668.50;4981463;28;6795;-76
2023/03/26 01:29:54;;;;;;;;;;;;;;;12.66;52.60;99666.88;4980129;28;6823;-76
2023/03/26 01:33:12;;;;;;;;;;;;;;;12.70;52.94;99660.97;4981721;28;6824;-73
2023/03/26 01:36:15;;;;;;;;;;;;;;;12.73;52.89;99656.78;4963363;28;6979;-73
2023/03/26 01:39:00;;;;;;;;;;;;;;;12.78;51.78;99659.47;4968371;28;8537;-74
2023/03/26 01:41:45;;;;;;;;;;;;;;;12.82;52.45;99656.16;4973076;28;7310;-74
2023/03/26 01:44:16;;;;;;;;;;;;;;;12.87;51.79;99651.13;4965889;28;6985;-76
2023/03/26 01:46:44;;;;;;;;;;;;;;;12.90;52.43;99652.06;4975547;28;7361;-74
2023/03/26 01:49:11;;;;;;;;;;;;;;;12.95;52.21;99641.06;4964322;28;6994;-74
2023/03/26 01:51:41;;;;;;;;;;;;;;;13.00;51.61;99644.59;4979863;28;6828;-76
2023/03/26 01:54:18;;;;;;;;;;;;;;;13.05;51.79;99630.19;4981245;28;6792;-74
2023/03/26 01:57:10;;;;;;;;;;;;;;;13.10;51.56;99633.72;4976727;28;7017;-74
2023/03/26 02:00:32;;;;;;;;;;;;;;;13.13;51.97;99626.06;4978175;28;6804;-74
2023/03/26 02:03:25;;;;;;;;;;;;;;;13.14;52.26;99625.25;4951044;28;13142;-74
2023/03/26 02:05:58;;;;;;;;;;;;;;;13.14;52.12;99614.97;4958391;28;6811;-77
2023/03/26 02:08:38;;;;;;;;;;;;;;;13.16;51.66;99602.13;4959732;28;7027;-75
2023/03/26 02:11:12;;;;;;;;;;;;;;;13.16;52.17;99600.44;4961701;28;6867;-74
2023/03/26 02:13:41;;;;;;;;;;;;;;;13.20;52.37;99599.66;4959338;28;7543;-79
2023/03/26 02:16:17;;;;;;;;;;;;;;;13.25;51.44;99593.78;4961983;28;6913;-80
2023/03/26 02:18:46;;;;;;;;;;;;;;;13.27;51.67;99592.09;4960278;28;6959;-79
2023/03/26 02:21:20;;;;;;;;;;;;;;;13.30;52.24;99592.16;4958189;28;6935;-79
2023/03/26 02:23:49;;;;;;;;;;;;;;;13.31;52.01;99587.06;4945879;28;7078;-79
2023/03/26 02:26:19;;;;;;;;;;;;;;;13.33;51.27;99571.69;4962477;28;7168;-77
2023/03/26 02:28:44;;;;;;;;;;;;;;;13.34;51.62;99569.13;4961973;28;6796;-76
2023/03/26 02:31:12;;;;;;;;;;;;;;;13.36;52.07;99568.28;4969748;28;6756;-76
2023/03/26 02:33:39;;;;;;;;;;;;;;;13.36;50.92;99561.44;4974207;28;7445;-76
2023/03/26 02:36:07;;;;;;;;;;;;;;;13.37;51.48;99557.16;4964424;28;7137;-76
2023/03/26 02:38:34;;;;;;;;;;;;;;;13.36;51.23;99564.00;4971052;28;6864;-76
2023/03/26 02:41:01;;;;;;;;;;;;;;;13.34;51.65;99565.69;4982567;28;6935;-76
2023/03/26 02:43:27;;;;;;;;;;;;;;;13.33;51.62;99558.81;4982464;28;6803;-76
2023/03/26 02:45:53;;;;;;;;;;;;;;;13.33;52.27;99556.22;4982484;28;7342;-76
2023/03/26 02:48:19;;;;;;;;;;;;;;;13.31;51.75;99553.63;4962082;28;7041;-76
2023/03/26 02:50:48;;;;;;;;;;;;;;;13.33;51.37;99551.09;4990751;28;7198;-76
2023/03/26 02:53:16;;;;;;;;;;;;;;;13.34;52.18;99537.38;4979469;28;6979;-76
2023/03/26 02:55:41;;;;;;;;;;;;;;;13.36;52.07;99539.97;4978773;28;6788;-76
2023/03/26 02:58:07;;;;;;;;;;;;;;;13.35;51.74;99533.97;4981134;28;7238;-76
2023/03/26 03:00:34;;;;;;;;;;;;;;;13.34;51.41;99527.09;4980367;28;7378;-76
2023/03/26 03:03:03;;;;;;;;;;;;;;;13.32;51.60;99526.16;4987222;28;6799;-76
2023/03/26 03:05:32;;;;;;;;;;;;;;;13.29;51.88;99531.25;4980929;28;6869;-76
2023/03/26 03:07:58;;;;;;;;;;;;;;;13.23;51.79;99519.09;4980152;28;7261;-76
2023/03/26 03:10:26;;;;;;;;;;;;;;;13.16;52.67;99518.09;4978398;28;7146;-76
2023/03/26 03:12:52;;;;;;;;;;;;;;;13.11;52.03;99514.53;4983872;28;6796;-77
2023/03/26 03:15:18;;;;;;;;;;;;;;;13.07;52.16;99507.59;4983370;28;6780;-76
2023/03/26 03:17:44;;;;;;;;;;;;;;;13.01;52.84;99500.59;4959596;28;7118;-76
2023/03/26 03:20:10;;;;;;;;;;;;;;;12.98;52.62;99507.38;4974611;28;6772;-76
2023/03/26 03:22:36;;;;;;;;;;;;;;;12.95;53.07;99499.59;4966933;28;6970;-76
2023/03/26 03:25:04;;;;;;;;;;;;;;;12.92;53.24;99493.53;4978835;28;7315;-76
2023/03/26 03:27:30;;;;;;;;;;;;;;;12.89;53.08;99488.31;4979373;28;7896;-76
2023/03/26 03:29:57;;;;;;;;;;;;;;;12.86;53.58;99487.38;4969545;28;7126;-76
2023/03/26 03:32:24;;;;;;;;;;;;;;;12.80;53.04;99475.25;4965847;28;7254;-76
2023/03/26 03:34:50;;;;;;;;;;;;;;;12.77;53.93;99476.03;4981668;28;6871;-76
2023/03/26 03:37:19;;;;;;;;;;;;;;;12.75;53.39;99474.28;4963740;28;7050;-76
2023/03/26 03:39:45;;;;;;;;;;;;;;;12.74;53.48;99480.22;4979879;28;7158;-76
2023/03/26 03:42:11;;;;;;;;;;;;;;;12.72;53.65;99472.50;4976962;28;6844;-76
2023/03/26 03:44:36;;;;;;;;;;;;;;;12.74;53.72;99459.66;4967951;28;7055;-76
2023/03/26 03:47:02;;;;;;;;;;;;;;;12.73;53.49;99455.34;4981943;28;6776;-76
2023/03/26 03:49:27;;;;;;;;;;;;;;;12.72;53.88;99443.31;4984152;28;6772;-76
2023/03/26 03:51:53;;;;;;;;;;;;;;;12.66;53.87;99443.19;4982642;28;7237;-76
2023/03/26 03:54:19;;;;;;;;;;;;;;;12.57;54.14;99442.16;4977782;28;6772;-76
2023/03/26 03:56:46;;;;;;;;;;;;;;;12.48;54.67;99432.47;4980518;28;6946;-76
2023/03/26 03:59:12;;;;;;;;;;;;;;;12.43;55.03;99425.50;4998410;28;6855;-76
2023/03/26 04:01:37;;;;;;;;;;;;;;;12.37;55.00;99418.50;4978764;28;7223;-76
2023/03/26 04:04:03;;;;;;;;;;;;;;;12.33;55.35;99414.13;4980847;28;6780;-76
2023/03/26 04:06:29;;;;;;;;;;;;;;;12.29;55.35;99409.72;4984722;28;6784;-76
2023/03/26 04:08:55;;;;;;;;;;;;;;;12.27;55.45;99406.25;4979893;28;6772;-76
2023/03/26 04:11:22;;;;;;;;;;;;;;;12.25;55.40;99398.50;4981292;28;6792;-76
2023/03/26 04:13:47;;;;;;;;;;;;;;;12.25;55.10;99401.06;4983532;28;7906;-76
2023/03/26 04:16:13;;;;;;;;;;;;;;;12.26;55.23;99395.09;4964117;28;7335;-76
2023/03/26 04:18:39;;;;;;;;;;;;;;;12.27;54.84;99385.72;4966986;28;7254;-76
2023/03/26 04:21:06;;;;;;;;;;;;;;;12.30;55.30;99388.34;4965701;28;7680;-77
2023/03/26 04:23:33;;;;;;;;;;;;;;;12.31;55.62;99380.69;4984112;28;6799;-76
2023/03/26 04:26:06;;;;;;;;;;;;;;;12.33;55.67;99380.72;4974262;28;6853;-76
2023/03/26 04:28:45;;;;;;;;;;;;;;;12.33;55.30;99373.88;4964018;28;7188;-76
2023/03/26 04:31:22;;;;;;;;;;;;;;;12.34;55.67;99373.03;4971737;28;7872;-76
2023/03/26 04:33:55;;;;;;;;;;;;;;;12.39;55.54;99374.88;4975194;28;7285;-76
2023/03/26 04:36:30;;;;;;;;;;;;;;;12.41;55.67;99362.94;4990347;28;7219;-76
2023/03/26 04:39:01;;;;;;;;;;;;;;;12.45;55.87;99362.16;4960434;28;7506;-76
2023/03/26 04:41:28;;;;;;;;;;;;;;;12.49;55.58;99358.84;4984209;28;6863;-76
2023/03/26 04:43:55;;;;;;;;;;;;;;;12.52;55.78;99347.78;4980248;28;6851;-76
2023/03/26 04:46:22;;;;;;;;;;;;;;;12.52;56.17;99347.78;4980013;28;6867;-76
2023/03/26 04:48:53;;;;;;;;;;;;;;;12.51;55.43;99341.75;4976883;28;6934;-76
2023/03/26 04:51:25;;;;;;;;;;;;;;;12.48;56.33;99332.25;4976318;28;6796;-76
2023/03/26 04:53:59;;;;;;;;;;;;;;;12.46;56.06;99323.66;4970663;28;7392;-76
2023/03/26 04:56:51;;;;;;;;;;;;;;;12.45;55.81;99321.03;4982031;28;7897;-76
2023/03/26 04:59:32;;;;;;;;;;;;;;;12.43;56.44;99317.56;4980528;28;6824;-76
2023/03/26 05:01:59;;;;;;;;;;;;;;;12.43;56.68;99313.31;4977920;28;6868;-76
2023/03/26 05:04:25;;;;;;;;;;;;;;;12.43;56.28;99302.16;4981776;28;6899;-76
2023/03/26 05:06:56;;;;;;;;;;;;;;;12.42;56.47;99303.88;4973993;28;7089;-76
2023/03/26 05:09:26;;;;;;;;;;;;;;;12.38;56.39;99296.06;4979324;28;6871;-76
2023/03/26 05:11:51;;;;;;;;;;;;;;;12.35;56.65;99297.69;4977129;28;6928;-76
2023/03/26 05:14:18;;;;;;;;;;;;;;;12.32;56.67;99292.50;4981475;28;7025;-76
2023/03/26 05:16:47;;;;;;;;;;;;;;;12.30;56.80;99290.72;4978773;28;6788;-76
2023/03/26 05:19:13;;;;;;;;;;;;;;;12.28;56.61;99288.13;4968496;28;7177;-76
2023/03/26 05:21:39;;;;;;;;;;;;;;;12.27;57.31;99285.53;4983947;28;6787;-76
2023/03/26 05:24:05;;;;;;;;;;;;;;;12.26;56.61;99282.06;4979436;28;6763;-76
2023/03/26 05:26:35;;;;;;;;;;;;;;;12.25;57.02;99279.47;4980575;28;7039;-76
2023/03/26 05:29:02;;;;;;;;;;;;;;;12.21;57.20;99270.84;4982170;28;6853;-76
2023/03/26 05:31:31;;;;;;;;;;;;;;;12.19;57.29;99268.22;4981230;28;6820;-76
2023/03/26 05:33:59;;;;;;;;;;;;;;;12.17;57.62;99263.91;4956990;28;6987;-76
2023/03/26 05:36:27;;;;;;;;;;;;;;;12.15;57.35;99251.00;4980848;28;6809;-76
2023/03/26 05:38:53;;;;;;;;;;;;;;;12.14;57.34;99249.28;4973989;28;6825;-76
2023/03/26 05:41:19;;;;;;;;;;;;;;;12.14;57.40;99253.53;4978500;28;7506;-75
2023/03/26 05:43:46;;;;;;;;;;;;;;;12.14;57.32;99244.13;4974920;28;6764;-75
2023/03/26 05:46:12;;;;;;;;;;;;;;;12.14;57.38;99238.13;4981729;28;6796;-75
2023/03/26 05:48:38;;;;;;;;;;;;;;;12.14;57.46;99232.97;4975276;28;7144;-76
2023/03/26 05:51:05;;;;;;;;;;;;;;;12.15;58.13;99235.59;4980778;28;7221;-76
2023/03/26 05:53:31;;;;;;;;;;;;;;;12.14;57.63;99230.41;4977677;28;6844;-75
2023/03/26 05:55:57;;;;;;;;;;;;;;;12.12;57.87;99232.97;4972903;28;6776;-76
2023/03/26 05:58:32;;;;;;;;;;;;;;;12.12;58.25;99232.09;4983144;28;6796;-76
2023/03/26 06:01:07;;;;;;;;;;;;;;;12.12;58.05;99227.84;4981390;28;6887;-76
2023/03/26 06:03:37;;;;;;;;;;;;;;;12.15;58.39;99227.00;4978468;28;7033;-76
2023/03/26 06:06:08;;;;;;;;;;;;;;;12.18;58.57;99224.53;4978650;28;7412;-76
2023/03/26 06:08:34;;;;;;;;;;;;;;;12.20;58.06;99221.16;4978744;28;7003;-75
2023/03/26 06:11:06;;;;;;;;;;;;;;;12.24;58.30;99219.50;4970817;28;7881;-76
2023/03/26 06:13:32;;;;;;;;;;;;;;;12.27;58.71;99208.44;4981937;28;6888;-76
2023/03/26 06:15:58;;;;;;;;;;;;;;;12.30;58.34;99208.50;4976235;28;7151;-75
2023/03/26 06:18:24;;;;;;;;;;;;;;;12.32;57.92;99204.28;4975680;28;6859;-76
2023/03/26 06:20:51;;;;;;;;;;;;;;;12.33;58.12;99203.44;4977362;28;6800;-76
2023/03/26 06:23:18;;;;;;;;;;;;;;;12.32;57.88;99202.56;4983472;28;6912;-76
2023/03/26 06:25:44;;;;;;;;;;;;;;;12.31;58.61;99195.69;4980932;28;7002;-76
2023/03/26 06:28:11;;;;;;;;;;;;;;;12.33;58.29;99195.75;4962014;28;6980;-76
2023/03/26 06:30:37;;;;;;;;;;;;;;;12.35;58.13;99194.06;4982255;28;7230;-76
2023/03/26 06:33:03;;;;;;;;;;;;;;;12.37;58.17;99200.09;4978005;28;7309;-76
2023/03/26 06:35:30;;;;;;;;;;;;;;;12.39;58.71;99197.56;4974471;28;7175;-76
2023/03/26 06:37:56;;;;;;;;;;;;;;;12.42;58.45;99192.50;4988414;28;6999;-75
2023/03/26 06:40:22;;;;;;;;;;;;;;;12.45;59.04;99190.84;4984140;28;6792;-75
2023/03/26 06:42:47;;;;;;;;;;;;;;;12.49;58.95;99189.22;4964780;28;6971;-75
2023/03/26 06:45:13;;;;;;;;;;;;;;;12.51;58.25;99192.69;4967396;28;7024;-75
2023/03/26 06:47:39;;;;;;;;;;;;;;;12.49;59.12;99184.09;4986138;28;6795;-75
2023/03/26 06:50:05;;;;;;;;;;;;;;;12.50;58.53;99185.81;4979230;28;6776;-75
2023/03/26 06:52:31;;;;;;;;;;;;;;;12.51;58.79;99179.84;4969714;28;6973;-75
2023/03/26 06:54:57;;;;;;;;;;;;;;;12.55;58.59;99183.34;4985052;28;6950;-75
2023/03/26 06:57:22;;;;;;;;;;;;;;;12.57;58.52;99182.53;4962060;28;7183;-75
2023/03/26 06:59:48;;;;;;;;;;;;;;;12.61;59.25;99179.19;4985672;28;7860;-75
2023/03/26 07:02:14;;;;;;;;;;;;;;;12.64;58.92;99176.66;4973165;28;7199;-75
2023/03/26 07:04:39;;;;;;;;;;;;;;;12.68;58.61;99169.03;4966335;28;6945;-76
2023/03/26 07:07:05;;;;;;;;;;;;;;;12.70;58.65;99167.34;4979822;28;6772;-75
2023/03/26 07:09:31;;;;;;;;;;;;;;;12.69;58.68;99166.47;4963377;28;7250;-75
2023/03/26 07:11:57;;;;;;;;;;;;;;;12.69;58.77;99160.47;4958937;28;7187;-75
2023/03/26 07:14:24;;;;;;;;;;;;;;;12.69;58.66;99163.06;4981107;28;8591;-75
2023/03/26 07:16:50;;;;;;;;;;;;;;;12.67;59.23;99160.44;4981291;28;6784;-75
2023/03/26 07:19:16;;;;;;;;;;;;;;;12.66;58.92;99150.16;4985939;28;6880;-75
2023/03/26 07:21:42;;;;;;;;;;;;;;;12.66;58.87;99152.72;4982404;28;7928;-75
2023/03/26 07:24:12;;;;;;;;;;;;;;;12.64;58.82;99148.38;4978740;28;7747;-75
2023/03/26 07:27:21;;;;;;;;;;;;;;;12.64;59.42;99150.97;4997298;28;6977;-75
2023/03/26 07:30:13;;;;;;;;;;;;;;;12.50;59.13;99147.25;4974979;28;6876;-75
2023/03/26 07:32:48;;;;;;;;;;;;;;;12.40;58.87;99147.91;4966925;28;13018;-75
2023/03/26 07:35:45;;;;;;;;;;;;;;;12.33;59.03;99149.50;4980498;28;7238;-75
2023/03/26 07:38:50;;;;;;;;;;;;;;;12.23;59.02;99140.72;4973235;28;6870;-75
2023/03/26 07:41:48;;;;;;;;;;;;;;;12.16;58.92;99143.97;4986402;28;6816;-75
2023/03/26 07:44:24;;;;;;;;;;;;;;;12.10;59.22;99142.16;4976390;28;8746;-75
2023/03/26 07:46:52;;;;;;;;;;;;;;;12.09;59.40;99132.72;4987418;28;7244;-75
2023/03/26 07:49:19;;;;;;;;;;;;;;;12.11;59.56;99128.47;4967125;28;7080;-75
2023/03/26 07:51:48;;;;;;;;;;;;;;;12.13;59.71;99129.41;4982228;28;6991;-75
2023/03/26 07:54:14;;;;;;;;;;;;;;;12.20;59.02;99130.38;4978294;28;7199;-75
2023/03/26 07:57:35;;;;;;;;;;;;;;;12.25;59.49;99121.06;4976436;28;6939;-80
2023/03/26 08:00:25;;;;;;;;;;;;;;;12.28;59.46;99126.28;4942153;28;7075;-80
2023/03/26 08:03:12;;;;;;;;;;;;;;;12.30;58.40;99116.00;4974588;28;11233;-81
2023/03/26 08:06:18;;;;;;;;;;;;;;;12.31;58.83;99113.50;4979782;28;7142;-79
2023/03/26 08:08:59;;;;;;;;;;;;;;;12.32;58.98;99114.38;4983971;28;6808;-78
2023/03/26 08:11:27;;;;;;;;;;;;;;;12.33;58.84;99109.25;5002441;28;6795;-78
2023/03/26 08:14:32;;;;;;;;;;;;;;;12.35;59.30;99105.00;4980829;28;7142;-80
2023/03/26 08:17:35;;;;;;;;;;;;;;;12.35;59.04;99099.00;4980846;28;6820;-76
2023/03/26 08:20:37;;;;;;;;;;;;;;;12.36;59.09;99101.63;4984840;28;7178;-78
2023/03/26 08:23:26;;;;;;;;;;;;;;;12.36;59.46;99095.59;4983483;28;7203;-77
2023/03/26 08:26:01;;;;;;;;;;;;;;;12.34;59.03;99085.28;5000500;28;7070;-80
2023/03/26 08:29:08;;;;;;;;;;;;;;;12.32;59.42;99078.41;4983911;28;6995;-80
2023/03/26 08:31:38;;;;;;;;;;;;;;;12.25;58.98;99079.97;4975656;28;7001;-78
2023/03/26 08:34:05;;;;;;;;;;;;;;;12.22;59.29;99077.34;4985089;28;6976;-79
2023/03/26 08:36:31;;;;;;;;;;;;;;;12.16;59.08;99067.81;4985801;28;7035;-81
2023/03/26 08:38:58;;;;;;;;;;;;;;;12.14;59.31;99072.06;4982452;28;7264;-81
2023/03/26 08:41:53;;;;;;;;;;;;;;;12.14;59.41;99076.31;4987443;28;6799;-77
2023/03/26 08:44:50;;;;;;;;;;;;;;;12.11;59.21;99071.13;4994922;28;6978;-75
2023/03/26 08:47:46;;;;;;;;;;;;;;;12.05;58.99;99062.44;4984617;28;7143;-82
2023/03/26 08:50:48;;;;;;;;;;;;;;;12.01;59.65;99062.31;4985000;28;7196;-81
2023/03/26 08:53:42;;;;;;;;;;;;;;;11.94;59.35;99051.06;4983664;28;7000;-80
2023/03/26 08:56:53;;;;;;;;;;;;;;;11.89;59.29;99047.53;4981701;28;6792;-80
2023/03/26 08:59:49;;;;;;;;;;;;;;;11.87;59.03;99049.19;4987244;28;7251;-81
2023/03/26 09:02:20;;;;;;;;;;;;;;;11.83;59.51;99032.88;4976593;28;6812;-81
2023/03/26 09:05:42;;;;;;;;;;;;;;;11.81;59.81;99037.09;4981355;28;7904;-79
2023/03/26 09:08:52;;;;;;;;;;;;;;;11.80;59.68;99033.69;4983958;28;6823;-78
2023/03/26 09:12:01;;;;;;;;;;;;;;;11.88;60.12;99030.38;4999328;28;7002;-76
2023/03/26 09:15:06;;;;;;;;;;;;;;;11.94;60.19;99025.38;4982521;28;6836;-78
2023/03/26 09:17:59;;;;;;;;;;;;;;;12.02;59.99;99025.53;4985381;28;6816;-79
2023/03/26 09:21:12;;;;;;;;;;;;;;;12.08;60.03;99018.88;4982692;28;6880;-80
2023/03/26 09:24:15;;;;;;;;;;;;;;;12.11;59.90;99022.31;4980816;28;7161;-75
2023/03/26 09:27:24;;;;;;;;;;;;;;;12.18;59.49;99019.06;4968036;28;7324;-77
2023/03/26 09:29:55;;;;;;;;;;;;;;;12.26;60.24;99019.19;4979006;28;6824;-82
2023/03/26 09:32:45;;;;;;;;;;;;;;;12.32;60.02;99004.75;4976541;28;6764;-81
2023/03/26 09:35:38;;;;;;;;;;;;;;;12.41;59.85;99008.31;4977234;28;8052;-80
2023/03/26 09:38:10;;;;;;;;;;;;;;;12.45;59.99;98999.81;4979970;28;7852;-80
2023/03/26 09:41:18;;;;;;;;;;;;;;;12.45;59.86;99000.69;4971118;28;7458;-81
2023/03/26 09:44:17;;;;;;;;;;;;;;;12.46;59.78;98999.84;4976440;28;6824;-80
2023/03/26 09:47:10;;;;;;;;;;;;;;;12.50;59.90;98995.66;4972786;28;6882;-79
2023/03/26 09:50:10;;;;;;;;;;;;;;;12.58;60.07;98998.34;4983855;28;6849;-80
2023/03/26 09:52:55;;;;;;;;;;;;;;;12.64;60.28;98994.16;4982684;28;6828;-79
2023/03/26 09:55:51;;;;;;;;;;;;;;;12.75;59.39;98989.22;4985469;28;6813;-81
2023/03/26 09:58:43;;;;;;;;;;;;;;;12.82;59.26;98985.03;4981294;28;6812;-80
2023/03/26 10:01:43;;;;;;;;;;;;;;;12.89;59.56;98989.44;4957929;28;7274;-77
2023/03/26 10:04:39;;;;;;;;;;;;;;;12.94;59.60;98986.06;4984700;28;6898;-81
2023/03/26 10:07:23;;;;;;;;;;;;;;;12.99;59.47;98981.88;4959902;28;7007;-78
2023/03/26 10:10:28;;;;;;;;;;;;;;;13.02;59.08;98985.34;4983974;28;6880;-81
2023/03/26 10:13:13;;;;;;;;;;;;;;;13.00;59.42;98983.59;4982526;28;6832;-80
2023/03/26 10:16:24;;;;;;;;;;;;;;;12.98;58.57;98977.56;4984948;28;6872;-81
2023/03/26 10:19:21;;;;;;;;;;;;;;;12.96;58.25;98971.53;4975184;28;7172;-80
2023/03/26 10:22:22;;;;;;;;;;;;;;;12.91;58.42;98969.75;4978128;28;6812;-83
2023/03/26 10:25:26;;;;;;;;;;;;;;;12.90;59.31;98970.59;4976435;28;6820;-81
2023/03/26 10:28:28;;;;;;;;;;;;;;;12.89;59.06;98971.44;4975121;28;7904;-79
2023/03/26 10:31:38;;;;;;;;;;;;;;;12.92;59.41;98974.03;4979523;28;7138;-76
2023/03/26 10:34:48;;;;;;;;;;;;;;;12.96;58.81;98974.13;4994594;28;7033;-80
2023/03/26 10:37:31;;;;;;;;;;;;;;;13.01;59.73;98972.47;4974758;28;7380;-81
2023/03/26 10:40:35;;;;;;;;;;;;;;;13.07;59.76;98967.41;4981561;28;8266;-80
2023/03/26 10:43:21;;;;;;;;;;;;;;;13.13;58.90;98976.94;4970809;28;6975;-80
2023/03/26 10:46:30;;;;;;;;;;;;;;;13.18;59.97;98968.44;4976761;28;7003;-81
2023/03/26 10:49:48;;;;;;;;;;;;;;;13.24;58.79;98971.97;4976353;28;6981;-81
2023/03/26 10:52:43;;;;;;;;;;;;;;;13.22;59.40;98976.19;4969545;28;7182;-81
2023/03/26 10:55:28;;;;;;;;;;;;;;;13.18;58.29;98967.56;4975676;28;7138;-80
2023/03/26 10:57:59;;;;;;;;;;;;;;;13.13;58.33;98971.78;4974375;28;6820;-80
2023/03/26 11:00:27;;;;;;;;;;;;;;;13.10;59.29;98966.59;4980108;28;6970;-79
2023/03/26 11:03:37;;;;;;;;;;;;;;;13.10;58.58;98972.59;4971898;28;7020;-79
2023/03/26 11:06:15;;;;;;;;;;;;;;;13.02;58.33;98979.34;4996697;28;7280;-79
2023/03/26 11:09:30;;;;;;;;;;;;;;;12.94;59.05;98978.34;4976373;28;6799;-78
2023/03/26 11:12:17;;;;;;;;;;;;;;;12.84;58.45;98997.91;4979974;28;6804;-78
2023/03/26 11:15:14;;;;;;;;;;;;;;;12.85;59.31;98995.38;4979941;28;6990;-74
2023/03/26 11:18:37;;;;;;;;;;;;;;;12.99;59.29;98989.59;4958208;28;7141;-79
2023/03/26 11:21:36;;;;;;;;;;;;;;;13.16;59.33;98989.81;4974229;28;7283;-79
2023/03/26 11:24:44;;;;;;;;;;;;;;;13.40;59.42;98986.75;4971449;28;7044;-78
2023/03/26 11:27:24;;;;;;;;;;;;;;;13.72;59.36;98983.78;4974069;28;6824;-80
2023/03/26 11:30:11;;;;;;;;;;;;;;;13.99;59.57;98989.25;4982896;28;6792;-75
2023/03/26 11:32:56;;;;;;;;;;;;;;;14.24;58.22;98992.94;4982890;28;12505;-81
2023/03/26 11:35:37;;;;;;;;;;;;;;;14.43;57.60;98991.41;4981791;28;6803;-82
2023/03/26 11:38:27;;;;;;;;;;;;;;;14.64;57.03;98987.31;4982294;28;6804;-82
2023/03/26 11:40:56;;;;;;;;;;;;;;;14.84;56.88;98986.66;4978171;28;6840;-77
2023/03/26 11:43:32;;;;;;;;;;;;;;;15.01;56.23;98991.94;4978458;28;6800;-81
2023/03/26 11:46:00;;;;;;;;;;;;;;;15.24;56.29;98993.78;4967439;28;7187;-78
2023/03/26 11:48:51;;;;;;;;;;;;;;;15.48;56.04;98985.31;4985054;28;7381;-79
2023/03/26 11:51:46;;;;;;;;;;;;;;;15.76;55.03;98985.47;4984016;28;6808;-81
2023/03/26 11:54:12;;;;;;;;;;;;;;;15.97;54.88;98986.44;4981204;28;6871;-77
2023/03/26 11:57:03;;;;;;;;;;;;;;;16.18;54.44;98985.63;4976506;28;7206;-80
2023/03/26 11:59:45;;;;;;;;;;;;;;;16.38;54.55;98988.28;4973283;28;7980;-82
2023/03/26 12:02:21;;;;;;;;;;;;;;;16.56;53.41;98985.69;5003591;28;7056;-82
2023/03/26 12:05:01;;;;;;;;;;;;;;;16.69;53.92;98996.91;4986105;28;6812;-81
2023/03/26 12:07:33;;;;;;;;;;;;;;;16.72;52.79;98991.75;4966650;28;6975;-78
2023/03/26 12:10:04;;;;;;;;;;;;;;;16.68;52.33;98990.88;4977465;28;7015;-81
2023/03/26 12:12:39;;;;;;;;;;;;;;;16.65;52.37;98996.06;4964672;28;6982;-81
2023/03/26 12:15:14;;;;;;;;;;;;;;;16.66;51.87;99000.38;4980699;28;6812;-81
2023/03/26 12:17:41;;;;;;;;;;;;;;;16.68;52.41;99003.81;4972023;28;7263;-80
2023/03/26 12:20:24;;;;;;;;;;;;;;;16.78;51.77;99010.72;4975728;28;7653;-79
2023/03/26 12:22:58;;;;;;;;;;;;;;;16.85;51.79;99000.38;4979539;28;7175;-80
2023/03/26 12:25:30;;;;;;;;;;;;;;;16.99;51.84;99001.22;4980448;28;7132;-81
2023/03/26 12:28:03;;;;;;;;;;;;;;;17.25;52.19;98997.78;4982449;28;6808;-81
2023/03/26 12:30:34;;;;;;;;;;;;;;;17.49;51.81;98998.59;4980130;28;6929;-79
2023/03/26 12:33:04;;;;;;;;;;;;;;;17.59;50.47;99002.88;4977547;28;6812;-78
2023/03/26 12:35:34;;;;;;;;;;;;;;;17.47;50.00;99002.91;4981099;28;7187;-82
2023/03/26 12:38:23;;;;;;;;;;;;;;;17.29;49.98;99003.81;4975578;28;6800;-78
2023/03/26 12:41:09;;;;;;;;;;;;;;;17.12;49.83;99012.44;4962006;28;7819;-75
2023/03/26 12:43:47;;;;;;;;;;;;;;;16.98;49.90;99015.03;4972758;28;7380;-76
2023/03/26 12:46:33;;;;;;;;;;;;;;;16.86;49.52;99020.19;4983217;28;6800;-77
2023/03/26 12:49:07;;;;;;;;;;;;;;;16.62;49.18;99017.59;4983475;28;6808;-81
2023/03/26 12:51:57;;;;;;;;;;;;;;;16.30;49.64;99025.28;4976440;28;8021;-82
2023/03/26 12:55:08;;;;;;;;;;;;;;;15.99;50.19;99026.06;4978842;28;7210;-80
2023/03/26 12:57:45;;;;;;;;;;;;;;;15.66;50.53;99033.66;4971876;28;6804;-83
2023/03/26 13:00:27;;;;;;;;;;;;;;;15.43;50.82;99036.09;4961705;28;7335;-84
2023/03/26 13:03:22;;;;;;;;;;;;;;;15.27;51.75;99029.97;4977330;28;6990;-83
2023/03/26 13:06:03;;;;;;;;;;;;;;;15.14;51.90;99036.75;4985793;28;6887;-81
2023/03/26 13:09:05;;;;;;;;;;;;;;;15.09;52.55;99041.00;4986021;28;7031;-84
2023/03/26 13:12:13;;;;;;;;;;;;;;;15.06;52.26;99048.72;4965081;28;7090;-79
2023/03/26 13:15:16;;;;;;;;;;;;;;;15.00;52.47;99046.97;4946539;28;7449;-82
2023/03/26 13:17:45;;;;;;;;;;;;;;;14.93;53.05;99056.38;4995988;28;7273;-82
2023/03/26 13:20:46;;;;;;;;;;;;;;;14.82;52.56;99053.69;5001117;28;7230;-78
2023/03/26 13:23:52;;;;;;;;;;;;;;;14.67;52.32;99058.66;4980398;28;6812;-82
2023/03/26 13:26:39;;;;;;;;;;;;;;;14.53;52.58;99054.25;4982990;28;7141;-82
2023/03/26 13:29:23;;;;;;;;;;;;;;;14.43;52.48;99062.72;5001529;28;7055;-81
2023/03/26 13:32:13;;;;;;;;;;;;;;;14.34;53.36;99065.19;4995735;28;7056;-83
2023/03/26 13:35:03;;;;;;;;;;;;;;;14.26;53.14;99058.25;4982905;28;7023;-83
2023/03/26 13:37:50;;;;;;;;;;;;;;;14.23;53.21;99063.38;4960487;28;7460;-83
2023/03/26 13:41:00;;;;;;;;;;;;;;;14.14;54.07;99063.25;4977752;28;8042;-82
2023/03/26 13:43:53;;;;;;;;;;;;;;;14.06;53.89;99068.31;4973687;28;7069;-81
2023/03/26 13:46:44;;;;;;;;;;;;;;;13.97;53.52;99078.50;4967567;28;6861;-80
2023/03/26 13:49:32;;;;;;;;;;;;;;;13.92;53.67;99080.16;4951515;28;7000;-79
2023/03/26 13:52:18;;;;;;;;;;;;;;;13.84;54.04;99077.47;4959431;28;9927;-79
2023/03/26 13:55:13;;;;;;;;;;;;;;;13.76;54.12;99082.50;4976604;28;7224;-77
2023/03/26 13:57:55;;;;;;;;;;;;;;;13.68;55.06;99084.13;4982491;28;6815;-78